createdAt,value
2022-09-06T00:00:01.291Z,38.09
2022-09-06T00:01:13.942Z,38.13
2022-09-06T00:02:15.605Z,38.00
2022-09-06T00:03:17.229Z,38.07
2022-09-06T00:04:18.877Z,38.27
2022-09-06T00:05:20.468Z,38.14
2022-09-06T00:06:22.372Z,37.87
2022-09-06T00:07:24.006Z,38.13
2022-09-06T00:08:25.624Z,38.31
2022-09-06T00:09:27.323Z,38.25
2022-09-06T00:10:30.296Z,38.03
2022-09-06T00:11:31.879Z,38.09
2022-09-06T00:12:33.941Z,37.98
2022-09-06T00:13:36.005Z,38.25
2022-09-06T00:14:37.554Z,38.29
2022-09-06T00:15:39.837Z,37.99
2022-09-06T00:16:41.405Z,38.19
2022-09-06T00:17:45.093Z,38.24
2022-09-06T00:18:47.195Z,38.11
2022-09-06T00:19:49.146Z,38.42
2022-09-06T00:20:50.685Z,38.29
2022-09-06T00:21:52.238Z,38.28
2022-09-06T00:22:58.952Z,38.23
2022-09-06T00:24:00.607Z,38.16
2022-09-06T00:25:04.622Z,38.32
2022-09-06T00:26:06.267Z,38.22
2022-09-06T00:27:08.964Z,38.49
2022-09-06T00:28:10.516Z,38.41
2022-09-06T00:29:12.129Z,38.42
2022-09-06T00:30:14.327Z,38.45
2022-09-06T00:31:22.023Z,38.44
2022-09-06T00:32:24.592Z,38.52
2022-09-06T00:33:26.183Z,38.32
2022-09-06T00:34:28.493Z,37.89
2022-09-06T00:35:30.100Z,38.21
2022-09-06T00:36:31.728Z,38.49
2022-09-06T00:37:33.272Z,38.31
2022-09-06T00:38:35.226Z,38.46
2022-09-06T00:39:36.853Z,38.38
2022-09-06T00:40:38.678Z,38.49
2022-09-06T00:41:40.403Z,38.37
2022-09-06T00:42:42.216Z,38.21
2022-09-06T00:43:43.963Z,38.40
2022-09-06T00:44:45.878Z,38.33
2022-09-06T00:45:47.559Z,38.45
2022-09-06T00:46:52.534Z,38.47
2022-09-06T00:47:54.683Z,38.30
2022-09-06T00:49:24.424Z,38.42
2022-09-06T00:50:27.934Z,38.14
2022-09-06T00:51:30.872Z,38.37
2022-09-06T00:52:33.683Z,38.27
2022-09-06T00:53:35.593Z,38.28
2022-09-06T00:54:38.289Z,38.49
2022-09-06T00:55:41.663Z,38.57
2022-09-06T00:56:44.736Z,38.41
2022-09-06T00:57:50.925Z,38.61
2022-09-06T00:58:52.556Z,38.45
2022-09-06T00:59:55.917Z,38.42
2022-09-06T01:00:57.601Z,38.22
2022-09-06T01:01:59.683Z,38.80
2022-09-06T01:03:01.625Z,38.40
2022-09-06T01:04:03.641Z,38.66
2022-09-06T01:05:06.274Z,38.66
2022-09-06T01:06:17.900Z,38.86
2022-09-06T01:07:49.821Z,38.66
2022-09-06T01:09:06.660Z,38.90
2022-09-06T01:10:14.069Z,38.46
2022-09-06T01:11:33.961Z,38.54
2022-09-06T01:12:58.598Z,38.08
2022-09-06T01:14:33.822Z,38.55
2022-09-06T01:15:51.957Z,38.94
2022-09-06T01:17:12.217Z,38.83
2022-09-06T01:18:44.428Z,38.79
2022-09-06T01:20:17.746Z,38.90
2022-09-06T01:21:35.067Z,38.62
2022-09-06T01:22:46.634Z,38.66
2022-09-06T01:24:04.469Z,38.58
2022-09-06T01:25:33.130Z,38.37
2022-09-06T01:26:53.422Z,38.59
2022-09-06T01:28:27.536Z,38.63
2022-09-06T01:29:48.003Z,38.73
2022-09-06T01:31:15.763Z,38.85
2022-09-06T01:32:40.371Z,38.53
2022-09-06T01:34:07.831Z,38.97
2022-09-06T01:35:46.724Z,38.70
2022-09-06T01:37:08.880Z,38.84
2022-09-06T01:38:12.148Z,38.35
2022-09-06T01:39:26.674Z,38.50
2022-09-06T01:40:28.653Z,38.50
2022-09-06T01:41:31.052Z,38.74
2022-09-06T01:42:35.286Z,38.59
2022-09-06T01:43:40.497Z,38.82
2022-09-06T01:44:46.288Z,38.63
2022-09-06T01:46:09.722Z,38.84
2022-09-06T01:47:23.945Z,38.64
2022-09-06T01:49:03.017Z,38.75
2022-09-06T01:50:22.834Z,38.65
2022-09-06T01:51:51.871Z,38.79
2022-09-06T01:53:14.795Z,38.82
2022-09-06T01:54:37.275Z,38.64
2022-09-06T01:56:12.034Z,38.87
2022-09-06T01:57:28.202Z,38.78
2022-09-06T01:58:29.749Z,38.84
2022-09-06T01:59:52.755Z,38.84
2022-09-06T02:01:12.604Z,38.47
2022-09-06T02:02:23.871Z,38.64
2022-09-06T02:03:41.074Z,38.43
2022-09-06T02:04:49.408Z,38.44
2022-09-06T02:06:04.509Z,38.51
2022-09-06T02:07:27.892Z,38.76
2022-09-06T02:08:46.521Z,38.63
2022-09-06T02:09:54.545Z,38.72
2022-09-06T02:11:04.882Z,38.88
2022-09-06T02:12:08.881Z,38.74
2022-09-06T02:13:12.608Z,38.97
2022-09-06T02:14:38.077Z,38.99
2022-09-06T02:15:45.639Z,38.73
2022-09-06T02:16:50.614Z,38.51
2022-09-06T02:18:04.548Z,38.25
2022-09-06T02:19:15.562Z,38.65
2022-09-06T02:20:24.069Z,38.69
2022-09-06T02:21:30.331Z,38.55
2022-09-06T02:22:36.931Z,38.66
2022-09-06T02:23:42.238Z,38.57
2022-09-06T02:24:47.344Z,38.88
2022-09-06T02:25:57.451Z,38.42
2022-09-06T02:26:59.119Z,38.40
2022-09-06T02:28:00.863Z,38.80
2022-09-06T02:29:02.592Z,38.57
2022-09-06T02:30:06.113Z,38.82
2022-09-06T02:31:18.509Z,38.72
2022-09-06T02:32:23.416Z,38.73
2022-09-06T02:33:29.236Z,38.75
2022-09-06T02:34:30.927Z,38.78
2022-09-06T02:35:32.679Z,38.82
2022-09-06T02:36:37.008Z,38.63
2022-09-06T02:37:38.790Z,38.69
2022-09-06T02:38:41.313Z,38.62
2022-09-06T02:39:43.459Z,38.71
2022-09-06T02:40:46.377Z,38.61
2022-09-06T02:41:48.736Z,38.68
2022-09-06T02:42:50.273Z,38.88
2022-09-06T02:43:51.847Z,38.94
2022-09-06T02:44:53.421Z,38.72
2022-09-06T02:45:55.033Z,38.85
2022-09-06T02:46:57.373Z,38.78
2022-09-06T02:47:59.022Z,38.89
2022-09-06T02:49:00.838Z,38.80
2022-09-06T02:50:02.615Z,38.75
2022-09-06T02:51:08.924Z,38.64
2022-09-06T02:52:10.470Z,38.81
2022-09-06T02:53:14.807Z,38.76
2022-09-06T02:54:16.448Z,38.74
2022-09-06T02:55:17.978Z,38.39
2022-09-06T02:56:19.525Z,38.48
2022-09-06T02:57:21.280Z,38.58
2022-09-06T02:58:23.064Z,38.75
2022-09-06T02:59:24.760Z,38.79
2022-09-06T03:00:27.443Z,38.73
2022-09-06T03:01:29.088Z,38.24
2022-09-06T03:02:30.774Z,38.17
2022-09-06T03:03:32.468Z,38.53
2022-09-06T03:04:34.032Z,38.61
2022-09-06T03:05:35.777Z,38.94
2022-09-06T03:06:37.335Z,38.78
2022-09-06T03:07:38.986Z,38.72
2022-09-06T03:08:40.528Z,38.60
2022-09-06T03:09:42.111Z,38.36
2022-09-06T03:10:56.180Z,38.84
2022-09-06T03:11:57.833Z,38.69
2022-09-06T03:12:59.474Z,38.56
2022-09-06T03:14:01.074Z,38.54
2022-09-06T03:15:02.790Z,38.52
2022-09-06T03:16:04.402Z,38.84
2022-09-06T03:17:05.998Z,38.79
2022-09-06T03:18:07.605Z,38.90
2022-09-06T03:19:09.187Z,38.62
2022-09-06T03:20:12.220Z,38.70
2022-09-06T03:21:13.855Z,38.83
2022-09-06T03:22:15.479Z,38.73
2022-09-06T03:23:18.521Z,38.64
2022-09-06T03:24:20.093Z,38.75
2022-09-06T03:25:21.952Z,38.48
2022-09-06T03:26:23.587Z,38.55
2022-09-06T03:27:25.157Z,38.97
2022-09-06T03:28:27.898Z,38.89
2022-09-06T03:29:29.541Z,39.01
2022-09-06T03:30:31.135Z,38.96
2022-09-06T03:31:32.739Z,38.66
2022-09-06T03:32:34.555Z,38.96
2022-09-06T03:33:36.140Z,38.75
2022-09-06T03:34:37.694Z,38.92
2022-09-06T03:35:39.368Z,38.85
2022-09-06T03:36:40.965Z,38.74
2022-09-06T03:37:42.537Z,38.98
2022-09-06T03:38:44.223Z,39.00
2022-09-06T03:39:45.809Z,38.96
2022-09-06T03:40:48.656Z,38.91
2022-09-06T03:41:50.254Z,38.78
2022-09-06T03:42:51.817Z,39.00
2022-09-06T03:43:53.386Z,39.27
2022-09-06T03:44:55.010Z,39.06
2022-09-06T03:45:57.570Z,38.84
2022-09-06T03:46:59.206Z,38.91
2022-09-06T03:48:00.755Z,38.64
2022-09-06T03:49:02.432Z,38.75
2022-09-06T03:50:05.533Z,38.71
2022-09-06T03:51:07.175Z,39.01
2022-09-06T03:52:08.806Z,39.06
2022-09-06T03:53:10.378Z,39.00
2022-09-06T03:54:11.927Z,39.15
2022-09-06T03:55:13.704Z,38.90
2022-09-06T03:56:15.325Z,38.68
2022-09-06T03:57:16.913Z,38.96
2022-09-06T03:58:21.372Z,39.00
2022-09-06T03:59:23.069Z,38.71
2022-09-06T04:00:24.661Z,39.02
2022-09-06T04:01:26.673Z,38.89
2022-09-06T04:02:28.348Z,38.41
2022-09-06T04:03:29.996Z,38.83
2022-09-06T04:04:31.541Z,38.93
2022-09-06T04:05:33.274Z,38.67
2022-09-06T04:06:34.889Z,38.45
2022-09-06T04:07:38.007Z,38.94
2022-09-06T04:08:40.043Z,39.07
2022-09-06T04:09:41.666Z,39.09
2022-09-06T04:10:43.368Z,38.44
2022-09-06T04:11:45.265Z,38.98
2022-09-06T04:12:46.868Z,38.81
2022-09-06T04:13:48.782Z,38.86
2022-09-06T04:14:50.362Z,38.96
2022-09-06T04:15:53.073Z,38.77
2022-09-06T04:16:54.854Z,38.81
2022-09-06T04:17:56.614Z,38.83
2022-09-06T04:19:00.060Z,38.92
2022-09-06T04:20:01.875Z,39.27
2022-09-06T04:21:03.855Z,39.17
2022-09-06T04:22:05.565Z,38.93
2022-09-06T04:23:07.493Z,39.02
2022-09-06T04:24:09.161Z,38.73
2022-09-06T04:25:10.936Z,38.31
2022-09-06T04:26:12.529Z,38.70
2022-09-06T04:27:14.138Z,39.10
2022-09-06T04:28:18.336Z,39.93
2022-09-06T04:29:19.944Z,40.64
2022-09-06T04:30:21.536Z,40.69
2022-09-06T04:31:23.131Z,40.88
2022-09-06T04:32:24.743Z,40.54
2022-09-06T04:33:28.423Z,40.48
2022-09-06T04:34:30.176Z,40.00
2022-09-06T04:35:31.743Z,39.37
2022-09-06T04:36:33.300Z,39.93
2022-09-06T04:37:34.877Z,39.70
2022-09-06T04:38:39.077Z,39.23
2022-09-06T04:39:40.788Z,38.79
2022-09-06T04:40:42.437Z,38.60
2022-09-06T04:41:44.177Z,39.39
2022-09-06T04:42:45.726Z,39.88
2022-09-06T04:43:47.901Z,38.78
2022-09-06T04:44:49.526Z,38.70
2022-09-06T04:45:51.496Z,38.45
2022-09-06T04:47:09.309Z,38.39
2022-09-06T04:48:11.674Z,37.98
2022-09-06T04:49:13.268Z,37.62
2022-09-06T04:50:14.812Z,37.53
2022-09-06T04:51:16.440Z,38.04
2022-09-06T04:52:18.067Z,37.89
2022-09-06T04:53:19.704Z,38.04
2022-09-06T04:54:21.265Z,37.61
2022-09-06T04:55:22.848Z,37.54
2022-09-06T04:56:26.733Z,38.20
2022-09-06T04:57:28.313Z,37.76
2022-09-06T04:58:29.875Z,37.11
2022-09-06T04:59:31.446Z,37.60
2022-09-06T05:00:34.382Z,37.64
2022-09-06T05:01:35.985Z,37.36
2022-09-06T05:02:37.708Z,37.07
2022-09-06T05:03:39.345Z,37.54
2022-09-06T05:04:40.892Z,37.57
2022-09-06T05:05:42.620Z,37.74
2022-09-06T05:06:44.251Z,37.53
2022-09-06T05:07:45.843Z,37.47
2022-09-06T05:08:48.247Z,37.10
2022-09-06T05:09:49.804Z,37.23
2022-09-06T05:10:51.632Z,37.30
2022-09-06T05:11:53.726Z,37.60
2022-09-06T05:12:55.421Z,37.19
2022-09-06T05:13:57.006Z,36.89
2022-09-06T05:14:58.564Z,36.53
2022-09-06T05:16:05.015Z,36.35
2022-09-06T05:17:06.654Z,36.35
2022-09-06T05:18:10.085Z,36.87
2022-09-06T05:19:13.979Z,37.08
2022-09-06T05:20:15.902Z,37.74
2022-09-06T05:21:17.729Z,36.82
2022-09-06T05:22:19.320Z,37.49
2022-09-06T05:23:22.100Z,36.86
2022-09-06T05:24:23.658Z,36.63
2022-09-06T05:25:25.262Z,37.03
2022-09-06T05:26:26.890Z,37.07
2022-09-06T05:27:28.479Z,36.58
2022-09-06T05:28:30.099Z,36.61
2022-09-06T05:29:31.660Z,36.01
2022-09-06T05:30:33.209Z,36.43
2022-09-06T05:31:35.719Z,36.42
2022-09-06T05:32:37.329Z,36.39
2022-09-06T05:33:39.517Z,35.78
2022-09-06T05:34:41.083Z,35.98
2022-09-06T05:35:42.753Z,35.59
2022-09-06T05:36:46.186Z,36.34
2022-09-06T05:37:47.791Z,35.98
2022-09-06T05:38:51.723Z,35.61
2022-09-06T05:39:53.333Z,36.41
2022-09-06T05:40:54.899Z,36.62
2022-09-06T05:41:56.510Z,36.65
2022-09-06T05:42:58.100Z,36.42
2022-09-06T05:44:00.097Z,35.85
2022-09-06T05:45:02.368Z,35.41
2022-09-06T05:46:04.182Z,35.69
2022-09-06T05:47:06.030Z,35.43
2022-09-06T05:48:08.692Z,35.49
2022-09-06T05:49:10.546Z,35.71
2022-09-06T05:50:12.374Z,35.63
2022-09-06T05:51:13.962Z,35.74
2022-09-06T05:52:17.414Z,35.34
2022-09-06T05:53:19.069Z,35.79
2022-09-06T05:54:20.899Z,35.47
2022-09-06T05:55:22.491Z,35.06
2022-09-06T05:56:24.830Z,34.72
2022-09-06T05:57:26.493Z,33.54
2022-09-06T05:58:28.249Z,34.09
2022-09-06T05:59:29.924Z,34.87
2022-09-06T06:00:31.482Z,34.64
2022-09-06T06:01:33.231Z,34.77
2022-09-06T06:02:34.915Z,34.67
2022-09-06T06:03:36.620Z,34.88
2022-09-06T06:04:38.223Z,34.21
2022-09-06T06:05:39.761Z,33.80
2022-09-06T06:06:41.331Z,33.91
2022-09-06T06:07:43.151Z,34.55
2022-09-06T06:08:44.928Z,35.04
2022-09-06T06:09:46.562Z,34.98
2022-09-06T06:10:48.140Z,35.18
2022-09-06T06:11:49.689Z,35.52
2022-09-06T06:12:51.254Z,34.49
2022-09-06T06:13:53.533Z,33.30
2022-09-06T06:14:55.113Z,33.68
2022-09-06T06:15:56.750Z,33.39
2022-09-06T06:16:58.351Z,33.17
2022-09-06T06:17:59.997Z,33.92
2022-09-06T06:19:01.571Z,34.87
2022-09-06T06:20:03.365Z,34.55
2022-09-06T06:21:11.914Z,34.62
2022-09-06T06:22:13.487Z,34.72
2022-09-06T06:23:15.829Z,35.35
2022-09-06T06:24:17.375Z,35.74
2022-09-06T06:25:23.059Z,36.44
2022-09-06T06:26:25.738Z,36.73
2022-09-06T06:27:27.360Z,36.04
2022-09-06T06:28:29.037Z,35.82
2022-09-06T06:29:30.713Z,36.52
2022-09-06T06:30:32.288Z,36.72
2022-09-06T06:31:34.441Z,37.19
2022-09-06T06:32:36.052Z,37.39
2022-09-06T06:33:38.337Z,37.08
2022-09-06T06:34:39.898Z,36.51
2022-09-06T06:35:41.448Z,36.79
2022-09-06T06:36:44.321Z,37.13
2022-09-06T06:37:45.930Z,36.72
2022-09-06T06:38:48.929Z,36.93
2022-09-06T06:39:50.608Z,36.87
2022-09-06T06:40:56.474Z,37.03
2022-09-06T06:42:01.021Z,36.61
2022-09-06T06:43:04.174Z,34.90
2022-09-06T06:44:06.115Z,34.86
2022-09-06T06:45:08.383Z,35.71
2022-09-06T06:46:12.685Z,35.76
2022-09-06T06:47:14.357Z,35.89
2022-09-06T06:48:16.293Z,35.82
2022-09-06T06:49:17.855Z,35.29
2022-09-06T06:50:19.423Z,35.74
2022-09-06T06:51:22.412Z,35.31
2022-09-06T06:52:24.456Z,35.79
2022-09-06T06:53:26.186Z,35.38
2022-09-06T06:54:27.830Z,35.76
2022-09-06T06:55:29.401Z,35.71
2022-09-06T06:56:40.790Z,36.38
2022-09-06T06:57:42.349Z,35.91
2022-09-06T06:58:45.257Z,35.74
2022-09-06T06:59:46.828Z,36.38
2022-09-06T07:00:48.553Z,37.40
2022-09-06T07:01:50.735Z,37.42
2022-09-06T07:02:56.315Z,36.88
2022-09-06T07:03:58.427Z,36.73
2022-09-06T07:05:00.382Z,37.30
2022-09-06T07:08:33.485Z,37.36
2022-09-06T07:10:56.826Z,37.53
2022-09-06T07:11:58.422Z,37.49
2022-09-06T07:13:00.136Z,37.48
2022-09-06T07:14:01.677Z,36.91
2022-09-06T07:15:03.681Z,36.33
2022-09-06T07:16:09.187Z,35.40
2022-09-06T07:17:10.793Z,35.74
2022-09-06T07:18:15.167Z,36.02
2022-09-06T07:22:04.326Z,37.24
2022-09-06T07:24:28.608Z,36.90
2022-09-06T07:25:30.342Z,37.30
2022-09-06T07:26:32.141Z,37.89
2022-09-06T07:27:49.783Z,37.93
2022-09-06T07:28:56.421Z,37.95
2022-09-06T07:29:58.107Z,37.73
2022-09-06T07:31:00.639Z,37.84
2022-09-06T07:33:10.845Z,37.67
2022-09-06T07:34:13.179Z,37.23
2022-09-06T07:35:14.989Z,37.50
2022-09-06T07:36:16.847Z,37.34
2022-09-06T07:37:18.425Z,37.46
2022-09-06T07:38:19.978Z,37.08
2022-09-06T07:39:21.775Z,37.28
2022-09-06T07:40:24.519Z,36.35
2022-09-06T07:41:26.232Z,36.60
2022-09-06T07:42:27.810Z,36.25
2022-09-06T07:43:30.056Z,37.04
2022-09-06T07:44:31.655Z,36.76
2022-09-06T07:45:35.169Z,37.47
2022-09-06T07:46:37.343Z,37.90
2022-09-06T07:49:00.639Z,37.52
2022-09-06T07:51:24.364Z,37.68
2022-09-06T07:54:06.974Z,37.08
2022-09-06T07:55:14.840Z,36.90
2022-09-06T07:56:17.448Z,36.67
2022-09-06T07:57:19.251Z,36.32
2022-09-06T07:58:20.976Z,36.67
2022-09-06T07:59:22.542Z,37.41
2022-09-06T08:00:24.104Z,37.48
2022-09-06T08:01:30.328Z,37.65
2022-09-06T08:02:32.148Z,37.00
2022-09-06T08:03:33.805Z,36.15
2022-09-06T08:04:35.425Z,36.75
2022-09-06T08:09:42.441Z,37.67
2022-09-06T08:10:44.029Z,38.19
2022-09-06T08:11:45.560Z,38.77
2022-09-06T08:12:47.092Z,39.15
2022-09-06T08:13:51.007Z,39.21
2022-09-06T08:14:52.557Z,39.67
2022-09-06T08:16:08.865Z,38.37
2022-09-06T08:17:10.478Z,38.28
2022-09-06T08:18:12.135Z,39.65
2022-09-06T08:19:14.427Z,39.99
2022-09-06T08:20:16.829Z,38.85
2022-09-06T08:21:18.501Z,39.98
2022-09-06T08:22:20.103Z,41.45
2022-09-06T08:23:21.979Z,43.15
2022-09-06T08:24:23.666Z,43.92
2022-09-06T08:25:25.841Z,44.55
2022-09-06T08:26:28.913Z,44.41
2022-09-06T08:27:30.525Z,42.78
2022-09-06T08:28:32.155Z,40.52
2022-09-06T08:29:34.977Z,41.41
2022-09-06T08:30:36.817Z,42.64
2022-09-06T08:31:41.274Z,43.76
2022-09-06T08:32:43.028Z,43.28
2022-09-06T08:33:44.741Z,43.49
2022-09-06T08:34:46.287Z,43.59
2022-09-06T08:36:00.690Z,43.55
2022-09-06T08:37:02.248Z,42.75
2022-09-06T08:38:05.410Z,37.45
2022-09-06T08:39:11.731Z,39.43
2022-09-06T08:40:23.813Z,39.23
2022-09-06T08:41:33.851Z,42.10
2022-09-06T08:42:39.950Z,40.68
2022-09-06T08:45:19.408Z,39.63
2022-09-06T08:46:29.894Z,36.87
2022-09-06T08:47:31.571Z,37.71
2022-09-06T08:48:37.028Z,37.17
2022-09-06T08:49:43.745Z,41.30
2022-09-06T08:51:02.146Z,41.34
2022-09-06T08:52:18.912Z,40.71
2022-09-06T08:53:20.540Z,41.45
2022-09-06T08:54:34.914Z,39.21
2022-09-06T08:55:36.968Z,37.52
2022-09-06T08:56:58.797Z,38.90
2022-09-06T08:58:22.694Z,40.50
2022-09-06T08:59:24.313Z,41.68
2022-09-06T09:00:26.126Z,40.33
2022-09-06T09:01:37.704Z,37.15
2022-09-06T09:02:58.093Z,38.27
2022-09-06T09:04:05.554Z,39.88
2022-09-06T09:05:22.114Z,40.41
2022-09-06T09:06:26.115Z,40.28
2022-09-06T09:07:43.988Z,41.37
2022-09-06T09:09:01.661Z,38.09
2022-09-06T09:10:10.497Z,37.46
2022-09-06T09:11:19.991Z,39.86
2022-09-06T09:12:23.743Z,41.00
2022-09-06T09:13:38.407Z,40.77
2022-09-06T09:14:43.391Z,39.59
2022-09-06T09:15:45.022Z,37.78
2022-09-06T09:16:51.367Z,38.02
2022-09-06T09:17:53.655Z,39.09
2022-09-06T09:18:58.659Z,37.30
2022-09-06T09:20:00.259Z,36.77
2022-09-06T09:21:02.588Z,38.74
2022-09-06T09:22:04.186Z,39.62
2022-09-06T09:23:05.805Z,39.67
2022-09-06T09:24:12.842Z,38.76
2022-09-06T09:25:22.070Z,38.74
2022-09-06T09:26:26.829Z,39.50
2022-09-06T09:27:29.509Z,39.39
2022-09-06T09:28:31.655Z,35.84
2022-09-06T09:29:36.265Z,35.82
2022-09-06T09:30:52.888Z,36.02
2022-09-06T09:31:55.358Z,35.86
2022-09-06T09:32:57.021Z,37.81
2022-09-06T09:34:02.665Z,37.61
2022-09-06T09:35:30.291Z,36.07
2022-09-06T09:36:32.842Z,35.81
2022-09-06T09:37:52.979Z,36.33
2022-09-06T09:38:58.248Z,36.63
2022-09-06T09:40:00.549Z,37.65
2022-09-06T09:41:06.254Z,37.54
2022-09-06T09:42:09.364Z,37.15
2022-09-06T09:43:33.174Z,37.49
2022-09-06T09:44:36.777Z,37.47
2022-09-06T09:45:38.401Z,37.42
2022-09-06T09:46:40.271Z,37.17
2022-09-06T09:47:42.581Z,36.29
2022-09-06T09:49:09.405Z,37.88
2022-09-06T09:50:30.097Z,38.41
2022-09-06T09:51:42.068Z,38.74
2022-09-06T09:52:44.501Z,37.23
2022-09-06T09:53:57.977Z,36.51
2022-09-06T09:55:05.422Z,36.17
2022-09-06T09:56:07.873Z,37.79
2022-09-06T09:57:12.222Z,37.98
2022-09-06T09:58:29.089Z,37.55
2022-09-06T09:59:37.730Z,36.41
2022-09-06T10:00:41.525Z,37.40
2022-09-06T10:01:43.348Z,38.21
2022-09-06T10:02:44.983Z,36.55
2022-09-06T10:05:28.836Z,37.89
2022-09-06T10:07:55.431Z,37.57
2022-09-06T10:08:57.394Z,38.00
2022-09-06T10:10:10.982Z,36.86
2022-09-06T10:11:14.177Z,38.23
2022-09-06T10:12:48.429Z,38.56
2022-09-06T10:13:50.850Z,38.22
2022-09-06T10:14:52.401Z,36.85
2022-09-06T10:15:54.588Z,34.23
2022-09-06T10:16:56.995Z,35.11
2022-09-06T10:17:58.668Z,36.02
2022-09-06T10:19:00.557Z,36.25
2022-09-06T10:20:12.726Z,35.80
2022-09-06T10:21:17.694Z,35.25
2022-09-06T10:22:23.696Z,36.71
2022-09-06T10:25:39.296Z,35.48
2022-09-06T10:26:51.069Z,33.83
2022-09-06T10:28:32.168Z,35.65
2022-09-06T10:29:44.185Z,33.33
2022-09-06T10:31:08.749Z,32.75
2022-09-06T10:32:35.321Z,33.21
2022-09-06T10:33:59.640Z,34.98
2022-09-06T10:35:19.151Z,34.58
2022-09-06T10:36:47.432Z,34.03
2022-09-06T10:38:04.154Z,34.06
2022-09-06T10:39:14.909Z,35.83
2022-09-06T10:40:32.566Z,36.62
2022-09-06T10:42:01.855Z,36.78
2022-09-06T10:43:06.201Z,36.21
2022-09-06T10:44:38.769Z,35.16
2022-09-06T10:46:02.713Z,35.56
2022-09-06T10:47:12.153Z,34.15
2022-09-06T10:48:30.832Z,36.16
2022-09-06T10:49:34.079Z,36.55
2022-09-06T10:51:04.997Z,36.67
2022-09-06T10:52:11.717Z,36.88
2022-09-06T10:53:25.141Z,35.01
2022-09-06T10:54:27.413Z,33.51
2022-09-06T10:55:32.188Z,33.52
2022-09-06T10:56:38.808Z,31.93
2022-09-06T11:00:44.171Z,33.82
2022-09-06T11:01:52.146Z,34.91
2022-09-06T11:06:03.148Z,35.45
2022-09-06T11:07:29.332Z,34.30
2022-09-06T11:08:46.214Z,34.17
2022-09-06T11:09:56.485Z,34.88
2022-09-06T11:11:03.179Z,35.54
2022-09-06T11:12:19.597Z,35.90
2022-09-06T11:13:24.782Z,33.26
2022-09-06T11:14:28.377Z,34.04
2022-09-06T11:15:47.055Z,32.50
2022-09-06T11:16:55.972Z,33.81
2022-09-06T11:18:00.497Z,32.03
2022-09-06T11:19:28.121Z,30.99
2022-09-06T11:20:44.734Z,31.31
2022-09-06T11:21:48.897Z,30.90
2022-09-06T11:23:05.170Z,30.15
2022-09-06T11:24:16.546Z,30.51
2022-09-06T11:25:42.795Z,32.23
2022-09-06T11:26:55.479Z,33.41
2022-09-06T11:28:01.061Z,30.85
2022-09-06T11:29:17.727Z,31.29
2022-09-06T11:30:19.746Z,32.87
2022-09-06T11:33:31.632Z,35.04
2022-09-06T11:34:35.266Z,31.64
2022-09-06T11:35:37.249Z,31.62
2022-09-06T11:36:49.642Z,33.60
2022-09-06T11:38:16.157Z,34.20
2022-09-06T11:41:28.770Z,31.73
2022-09-06T11:42:50.531Z,30.83
2022-09-06T11:43:53.262Z,30.71
2022-09-06T11:45:21.248Z,32.05
2022-09-06T11:46:35.111Z,31.30
2022-09-06T11:47:39.750Z,31.02
2022-09-06T11:49:01.510Z,32.47
2022-09-06T11:50:28.105Z,34.19
2022-09-06T11:51:32.649Z,34.49
2022-09-06T11:52:51.263Z,34.30
2022-09-06T11:53:59.089Z,34.67
2022-09-06T11:55:00.944Z,34.99
2022-09-06T11:56:02.529Z,33.59
2022-09-06T11:57:22.510Z,32.41
2022-09-06T11:58:31.673Z,32.63
2022-09-06T11:59:38.754Z,33.51
2022-09-06T12:00:40.368Z,32.09
2022-09-06T12:02:00.459Z,30.75
2022-09-06T12:04:24.325Z,32.23
2022-09-06T12:05:31.001Z,31.07
2022-09-06T12:06:37.592Z,30.34
2022-09-06T12:08:10.942Z,29.38
2022-09-06T12:09:34.240Z,29.46
2022-09-06T12:10:46.096Z,29.33
2022-09-06T12:11:48.716Z,31.12
2022-09-06T12:12:52.656Z,32.78
2022-09-06T12:14:03.839Z,33.66
2022-09-06T12:15:43.484Z,33.90
2022-09-06T12:17:07.995Z,33.30
2022-09-06T12:18:09.975Z,33.09
2022-09-06T12:19:44.377Z,30.60
2022-09-06T12:20:49.186Z,30.38
2022-09-06T12:21:52.458Z,30.67
2022-09-06T12:22:54.987Z,30.00
2022-09-06T12:23:56.739Z,29.50
2022-09-06T12:25:16.604Z,29.64
2022-09-06T12:26:45.048Z,29.51
2022-09-06T12:27:58.366Z,28.81
2022-09-06T12:29:00.034Z,28.98
2022-09-06T12:30:11.804Z,30.25
2022-09-06T12:31:35.035Z,29.83
2022-09-06T12:32:40.716Z,28.36
2022-09-06T12:33:44.306Z,29.50
2022-09-06T12:34:47.182Z,29.34
2022-09-06T12:35:57.392Z,29.81
2022-09-06T12:37:03.612Z,29.71
2022-09-06T12:38:07.181Z,30.43
2022-09-06T12:39:12.190Z,30.45
2022-09-06T12:40:14.422Z,30.27
2022-09-06T12:41:16.126Z,30.74
2022-09-06T12:42:19.445Z,30.44
2022-09-06T12:43:21.061Z,30.83
2022-09-06T12:44:33.848Z,31.62
2022-09-06T12:45:35.562Z,31.05
2022-09-06T12:46:39.965Z,30.62
2022-09-06T12:47:41.844Z,30.60
2022-09-06T12:48:58.733Z,31.35
2022-09-06T12:50:10.486Z,30.17
2022-09-06T12:51:20.219Z,30.11
2022-09-06T12:52:21.790Z,30.68
2022-09-06T12:53:24.988Z,29.83
2022-09-06T12:54:28.893Z,30.48
2022-09-06T12:55:33.520Z,30.48
2022-09-06T12:56:35.241Z,31.37
2022-09-06T12:57:36.824Z,32.45
2022-09-06T12:58:39.637Z,31.77
2022-09-06T13:00:01.686Z,32.00
2022-09-06T13:01:12.130Z,32.38
2022-09-06T13:02:19.701Z,32.44
2022-09-06T13:03:35.082Z,32.20
2022-09-06T13:04:40.005Z,32.06
2022-09-06T13:05:45.237Z,31.47
2022-09-06T13:06:48.348Z,31.77
2022-09-06T13:07:58.123Z,32.28
2022-09-06T13:09:01.061Z,31.62
2022-09-06T13:10:03.373Z,31.39
2022-09-06T13:11:11.047Z,31.19
2022-09-06T13:12:33.471Z,31.77
2022-09-06T13:13:35.048Z,32.00
2022-09-06T13:14:36.868Z,31.88
2022-09-06T13:15:39.057Z,32.12
2022-09-06T13:16:47.432Z,32.15
2022-09-06T13:17:49.120Z,31.53
2022-09-06T13:18:51.072Z,31.35
2022-09-06T13:19:52.773Z,31.15
2022-09-06T13:20:59.368Z,31.21
2022-09-06T13:22:03.786Z,30.72
2022-09-06T13:23:09.798Z,30.94
2022-09-06T13:24:46.366Z,30.80
2022-09-06T13:25:50.640Z,31.73
2022-09-06T13:26:53.188Z,31.40
2022-09-06T13:27:58.917Z,31.52
2022-09-06T13:29:23.620Z,31.91
2022-09-06T13:30:35.815Z,32.41
2022-09-06T13:31:37.813Z,32.38
2022-09-06T13:32:47.112Z,32.49
2022-09-06T13:33:59.233Z,32.11
2022-09-06T13:35:01.081Z,31.26
2022-09-06T13:36:13.105Z,32.66
2022-09-06T13:37:15.078Z,32.52
2022-09-06T13:38:21.728Z,31.41
2022-09-06T13:39:31.573Z,31.77
2022-09-06T13:41:06.759Z,31.90
2022-09-06T13:42:04.370Z,32.21
2022-09-06T13:43:11.732Z,32.90
2022-09-06T13:44:16.046Z,32.72
2022-09-06T13:45:29.092Z,31.86
2022-09-06T13:46:32.592Z,32.19
2022-09-06T13:47:34.250Z,32.46
2022-09-06T13:48:36.013Z,32.42
2022-09-06T13:49:37.622Z,32.36
2022-09-06T13:50:39.844Z,32.25
2022-09-06T13:51:43.309Z,32.03
2022-09-06T13:52:44.839Z,32.11
2022-09-06T13:53:46.406Z,31.78
2022-09-06T13:54:48.782Z,32.20
2022-09-06T13:55:50.768Z,31.96
2022-09-06T13:56:52.928Z,31.46
2022-09-06T13:57:54.494Z,31.52
2022-09-06T13:58:56.070Z,32.34
2022-09-06T13:59:57.906Z,32.87
2022-09-06T14:00:59.505Z,33.00
2022-09-06T14:02:08.506Z,32.62
2022-09-06T14:03:21.156Z,32.49
2022-09-06T14:04:23.187Z,31.99
2022-09-06T14:05:24.738Z,32.26
2022-09-06T14:06:26.467Z,32.23
2022-09-06T14:07:28.055Z,31.89
2022-09-06T14:08:43.922Z,31.96
2022-09-06T14:09:51.949Z,31.49
2022-09-06T14:10:53.738Z,32.87
2022-09-06T14:11:56.059Z,32.72
2022-09-06T14:12:57.664Z,32.22
2022-09-06T14:13:59.573Z,31.88
2022-09-06T14:15:01.314Z,31.94
2022-09-06T14:16:05.391Z,32.17
2022-09-06T14:17:07.062Z,32.60
2022-09-06T14:18:13.808Z,32.26
2022-09-06T14:19:16.052Z,36.60
2022-09-06T14:20:17.970Z,37.24
2022-09-06T14:21:19.593Z,34.62
2022-09-06T14:22:21.223Z,35.06
2022-09-06T14:23:23.425Z,38.52
2022-09-06T14:24:25.009Z,37.44
2022-09-06T14:25:26.620Z,39.56
2022-09-06T14:26:28.672Z,33.88
2022-09-06T14:27:30.368Z,34.74
2022-09-06T14:28:33.999Z,37.85
2022-09-06T14:29:36.040Z,37.06
2022-09-06T14:30:38.207Z,38.95
2022-09-06T14:31:39.891Z,39.82
2022-09-06T14:32:41.548Z,37.25
2022-09-06T14:33:43.617Z,37.28
2022-09-06T14:34:46.100Z,37.60
2022-09-06T14:35:48.806Z,39.02
2022-09-06T14:36:52.305Z,36.53
2022-09-06T14:37:53.884Z,36.85
2022-09-06T14:38:57.487Z,37.09
2022-09-06T14:39:59.726Z,37.90
2022-09-06T14:41:05.061Z,36.35
2022-09-06T14:42:06.895Z,34.80
2022-09-06T14:43:08.707Z,36.03
2022-09-06T14:44:10.977Z,36.71
2022-09-06T14:45:12.548Z,37.79
2022-09-06T14:46:16.209Z,35.46